Time;durP1;ratioP1;P1;durP2;ratioP2;P2;SDS_P1;SDS_P2;PMS_P1;PMS_P2;Temp;Humidity;BMP_temperature;BMP_pressure;BME280_temperature;BME280_humidity;BME280_pressure;Samples;Min_cycle;Max_cycle;Signal;HPM_P1;HPM_P2
2023/09/29 00:02:59;;;;;;;0.03;0.03;;;;;;;;;;6318190;28;20044;-88
2023/09/29 00:06:03;;;;;;;0.00;0.00;;;;;;;;;;6301013;28;20032;-88
2023/09/29 00:09:06;;;;;;;0.40;0.40;;;;;;;;;;6312024;28;20119;-88
2023/09/29 00:12:08;;;;;;;0.00;0.00;;;;;;;;;;6315080;28;20116;-88
2023/09/29 00:15:11;;;;;;;0.03;0.03;;;;;;;;;;6321592;27;20052;-87
2023/09/29 00:18:15;;;;;;;0.05;0.03;;;;;;;;;;6303883;28;20397;-88
2023/09/29 00:21:17;;;;;;;0.10;0.10;;;;;;;;;;6309400;28;20040;-88
2023/09/29 00:24:18;;;;;;;0.00;0.00;;;;;;;;;;6314683;28;20052;-88
2023/09/29 00:27:20;;;;;;;0.00;0.00;;;;;;;;;;6304310;28;20141;-88
2023/09/29 00:30:23;;;;;;;0.00;0.00;;;;;;;;;;6307560;28;20353;-88
2023/09/29 00:33:24;;;;;;;0.25;0.25;;;;;;;;;;6318873;28;20616;-88
2023/09/29 00:36:26;;;;;;;0.00;0.00;;;;;;;;;;6313629;28;20308;-88
2023/09/29 00:39:28;;;;;;;0.22;0.22;;;;;;;;;;6311029;28;20256;-88
2023/09/29 00:42:30;;;;;;;0.08;0.08;;;;;;;;;;6315698;28;20149;-88
2023/09/29 00:45:33;;;;;;;0.00;0.00;;;;;;;;;;6317689;28;20386;-88
2023/09/29 00:48:36;;;;;;;0.00;0.00;;;;;;;;;;6328394;28;20047;-88
2023/09/29 00:51:39;;;;;;;0.20;0.20;;;;;;;;;;6334399;28;20051;-88
2023/09/29 00:54:41;;;;;;;0.00;0.00;;;;;;;;;;6317726;28;20050;-88
2023/09/29 00:57:44;;;;;;;0.50;0.38;;;;;;;;;;6329082;28;20405;-88
2023/09/29 01:00:46;;;;;;;0.05;0.05;;;;;;;;;;6317071;28;20156;-88
2023/09/29 01:03:50;;;;;;;0.50;0.50;;;;;;;;;;6306339;28;20431;-88
2023/09/29 01:06:53;;;;;;;0.20;0.20;;;;;;;;;;6311978;28;20490;-88
2023/09/29 01:09:55;;;;;;;0.25;0.25;;;;;;;;;;6319400;28;20044;-88
2023/09/29 01:12:57;;;;;;;0.08;0.08;;;;;;;;;;6313101;28;20067;-88
2023/09/29 01:15:59;;;;;;;0.10;0.10;;;;;;;;;;6309416;28;20052;-88
2023/09/29 01:19:01;;;;;;;0.52;0.52;;;;;;;;;;6322441;28;20024;-88
2023/09/29 01:22:03;;;;;;;0.05;0.05;;;;;;;;;;6314720;28;20922;-88
2023/09/29 01:25:05;;;;;;;0.00;0.00;;;;;;;;;;6317447;28;20439;-88
2023/09/29 01:28:08;;;;;;;0.00;0.00;;;;;;;;;;6302580;28;20040;-88
2023/09/29 01:31:09;;;;;;;0.20;0.20;;;;;;;;;;6316439;28;20048;-88
2023/09/29 01:34:12;;;;;;;0.20;0.20;;;;;;;;;;6309006;28;20047;-88
2023/09/29 01:37:14;;;;;;;0.17;0.17;;;;;;;;;;6304726;28;20063;-88
2023/09/29 01:40:16;;;;;;;0.30;0.20;;;;;;;;;;6305149;28;20047;-88
2023/09/29 01:43:18;;;;;;;0.30;0.30;;;;;;;;;;6304519;28;20039;-88
2023/09/29 01:46:22;;;;;;;0.00;0.00;;;;;;;;;;6308067;28;20166;-88
2023/09/29 01:49:23;;;;;;;0.28;0.28;;;;;;;;;;6309041;28;20044;-87
2023/09/29 01:52:26;;;;;;;0.05;0.00;;;;;;;;;;6319377;28;20047;-88
2023/09/29 01:55:28;;;;;;;0.10;0.10;;;;;;;;;;6323072;28;20074;-88
2023/09/29 01:58:31;;;;;;;0.35;0.35;;;;;;;;;;6315594;28;20047;-88
2023/09/29 02:01:37;;;;;;;0.10;0.10;;;;;;;;;;6304954;28;20174;-88
2023/09/29 02:04:39;;;;;;;0.20;0.20;;;;;;;;;;6324904;28;20040;-88
2023/09/29 02:07:41;;;;;;;0.10;0.10;;;;;;;;;;6329249;28;20040;-88
2023/09/29 02:10:45;;;;;;;0.20;0.20;;;;;;;;;;6323946;28;20055;-88
2023/09/29 02:13:48;;;;;;;0.30;0.30;;;;;;;;;;6310981;28;20100;-88
2023/09/29 02:16:50;;;;;;;0.00;0.00;;;;;;;;;;6309316;28;20619;-88
2023/09/29 02:19:52;;;;;;;0.00;0.00;;;;;;;;;;6314778;28;20043;-88
2023/09/29 02:22:55;;;;;;;0.00;0.00;;;;;;;;;;6319551;28;20047;-88
2023/09/29 02:26:00;;;;;;;0.08;0.08;;;;;;;;;;6331880;28;20537;-88
2023/09/29 02:29:02;;;;;;;0.00;0.00;;;;;;;;;;6317681;28;20035;-88
2023/09/29 02:32:05;;;;;;;0.00;0.00;;;;;;;;;;6304353;28;20058;-88
2023/09/29 02:35:10;;;;;;;0.00;0.00;;;;;;;;;;6315396;28;20532;-88
2023/09/29 02:38:12;;;;;;;0.15;0.15;;;;;;;;;;6310650;28;20113;-88
2023/09/29 02:41:14;;;;;;;0.10;0.10;;;;;;;;;;6325240;28;20478;-88
2023/09/29 02:44:15;;;;;;;0.00;0.00;;;;;;;;;;6314044;28;20047;-88
2023/09/29 02:47:18;;;;;;;0.00;0.00;;;;;;;;;;6300692;28;20543;-87
2023/09/29 02:50:19;;;;;;;0.00;0.00;;;;;;;;;;6319710;28;20051;-88
2023/09/29 02:53:21;;;;;;;0.00;0.00;;;;;;;;;;6333112;28;20546;-88
2023/09/29 02:56:23;;;;;;;0.08;0.08;;;;;;;;;;6338133;27;20040;-88
2023/09/29 02:59:25;;;;;;;0.20;0.20;;;;;;;;;;6312388;28;20211;-88
2023/09/29 03:02:27;;;;;;;0.00;0.00;;;;;;;;;;6300056;28;20493;-88
2023/09/29 03:05:29;;;;;;;0.10;0.00;;;;;;;;;;6335233;28;20047;-88
2023/09/29 03:08:32;;;;;;;0.05;0.05;;;;;;;;;;6313264;28;20055;-88
2023/09/29 03:11:34;;;;;;;0.10;0.10;;;;;;;;;;6306972;28;20519;-88
2023/09/29 03:14:36;;;;;;;0.20;0.20;;;;;;;;;;6323043;28;20044;-88
2023/09/29 03:17:38;;;;;;;0.08;0.08;;;;;;;;;;6313986;28;20126;-88
2023/09/29 03:20:40;;;;;;;0.00;0.00;;;;;;;;;;6320793;28;20412;-87
2023/09/29 03:23:43;;;;;;;0.32;0.32;;;;;;;;;;6317976;28;20048;-88
2023/09/29 03:26:45;;;;;;;0.00;0.00;;;;;;;;;;6292770;28;20041;-88
2023/09/29 03:29:46;;;;;;;0.00;0.00;;;;;;;;;;6295789;28;20523;-88
2023/09/29 03:32:49;;;;;;;0.10;0.10;;;;;;;;;;6339059;28;20147;-88
2023/09/29 03:35:55;;;;;;;0.00;0.00;;;;;;;;;;6310423;28;20052;-88
2023/09/29 03:38:56;;;;;;;0.00;0.00;;;;;;;;;;6292047;28;20454;-87
2023/09/29 03:41:59;;;;;;;0.00;0.00;;;;;;;;;;6314972;28;20123;-88
2023/09/29 03:45:05;;;;;;;0.00;0.00;;;;;;;;;;6312342;28;20044;-88
2023/09/29 03:48:07;;;;;;;0.52;0.10;;;;;;;;;;6311519;28;21671;-88
2023/09/29 03:51:09;;;;;;;0.00;0.00;;;;;;;;;;6306403;28;20082;-88
2023/09/29 03:54:11;;;;;;;0.00;0.00;;;;;;;;;;6314428;28;20525;-88
2023/09/29 03:57:13;;;;;;;0.00;0.00;;;;;;;;;;6317558;28;20070;-87
2023/09/29 04:00:17;;;;;;;0.10;0.10;;;;;;;;;;6300440;28;20074;-87
2023/09/29 04:03:19;;;;;;;0.05;0.05;;;;;;;;;;6325342;28;20766;-88
2023/09/29 04:06:21;;;;;;;0.00;0.00;;;;;;;;;;6313280;28;20502;-88
2023/09/29 04:09:23;;;;;;;0.25;0.25;;;;;;;;;;6327794;28;20123;-88
2023/09/29 04:12:25;;;;;;;0.00;0.00;;;;;;;;;;6303475;28;20045;-87
2023/09/29 04:15:27;;;;;;;0.00;0.00;;;;;;;;;;6291369;28;20643;-88
2023/09/29 04:18:29;;;;;;;0.25;0.25;;;;;;;;;;6304512;28;20063;-88
2023/09/29 04:21:30;;;;;;;0.00;0.00;;;;;;;;;;6305779;28;20044;-88
2023/09/29 04:24:32;;;;;;;0.00;0.00;;;;;;;;;;6291677;28;20044;-88
2023/09/29 04:27:35;;;;;;;0.00;0.00;;;;;;;;;;6304114;28;20074;-88
2023/09/29 04:30:37;;;;;;;0.10;0.10;;;;;;;;;;6317112;28;20100;-88
2023/09/29 04:33:39;;;;;;;0.00;0.00;;;;;;;;;;6307148;28;20047;-88
2023/09/29 04:36:42;;;;;;;0.00;0.00;;;;;;;;;;6316757;28;20040;-88
2023/09/29 04:39:44;;;;;;;0.00;0.00;;;;;;;;;;6331997;28;20036;-88
2023/09/29 04:42:46;;;;;;;0.00;0.00;;;;;;;;;;6330415;28;20058;-88
2023/09/29 04:45:47;;;;;;;0.00;0.00;;;;;;;;;;6332863;28;20494;-88
2023/09/29 04:48:53;;;;;;;0.00;0.00;;;;;;;;;;6302707;28;20048;-88
2023/09/29 04:51:55;;;;;;;0.00;0.00;;;;;;;;;;6307912;28;20064;-87
2023/09/29 04:54:57;;;;;;;0.00;0.00;;;;;;;;;;6326646;28;20051;-88
2023/09/29 04:57:59;;;;;;;0.00;0.00;;;;;;;;;;6317178;28;20454;-88
2023/09/29 05:01:01;;;;;;;0.00;0.00;;;;;;;;;;6316200;28;20059;-88
2023/09/29 05:04:03;;;;;;;0.10;0.10;;;;;;;;;;6323383;28;20420;-88
2023/09/29 05:07:05;;;;;;;0.00;0.00;;;;;;;;;;6302614;28;20044;-88
2023/09/29 05:10:07;;;;;;;0.05;0.05;;;;;;;;;;6310233;28;20088;-88
2023/09/29 05:13:09;;;;;;;0.00;0.00;;;;;;;;;;6308061;28;20045;-88
2023/09/29 05:16:11;;;;;;;0.22;0.22;;;;;;;;;;6325573;28;20048;-87
2023/09/29 05:19:13;;;;;;;0.00;0.00;;;;;;;;;;6321135;28;20036;-87
2023/09/29 05:22:15;;;;;;;0.00;0.00;;;;;;;;;;6295222;28;20040;-87
2023/09/29 05:25:16;;;;;;;0.00;0.00;;;;;;;;;;6324569;28;20040;-88
2023/09/29 05:28:18;;;;;;;0.00;0.00;;;;;;;;;;6322084;28;20492;-87
2023/09/29 05:31:20;;;;;;;0.38;0.38;;;;;;;;;;6314970;28;20153;-88
2023/09/29 05:34:22;;;;;;;0.10;0.10;;;;;;;;;;6313018;28;20044;-87
2023/09/29 05:37:24;;;;;;;0.20;0.20;;;;;;;;;;6326541;28;20052;-88
2023/09/29 05:40:25;;;;;;;0.00;0.00;;;;;;;;;;6325091;28;20541;-88
2023/09/29 05:43:27;;;;;;;0.00;0.00;;;;;;;;;;6314625;28;20052;-88
2023/09/29 05:46:29;;;;;;;0.00;0.00;;;;;;;;;;6321897;28;20077;-87
2023/09/29 05:49:32;;;;;;;0.00;0.00;;;;;;;;;;6317820;28;20055;-88
2023/09/29 05:52:35;;;;;;;0.28;0.28;;;;;;;;;;6305598;28;20050;-88
2023/09/29 05:55:37;;;;;;;0.32;0.10;;;;;;;;;;6305552;28;20445;-88
2023/09/29 05:58:39;;;;;;;0.15;0.15;;;;;;;;;;6317015;28;20055;-87
2023/09/29 06:01:40;;;;;;;0.00;0.00;;;;;;;;;;6309100;28;20574;-88
2023/09/29 06:04:42;;;;;;;0.10;0.10;;;;;;;;;;6302076;28;20056;-88
2023/09/29 06:07:45;;;;;;;0.00;0.00;;;;;;;;;;6311182;28;20040;-88
2023/09/29 06:10:46;;;;;;;0.00;0.00;;;;;;;;;;6315283;28;20415;-88
2023/09/29 06:13:48;;;;;;;0.03;0.03;;;;;;;;;;6316252;28;20528;-88
2023/09/29 06:16:50;;;;;;;0.00;0.00;;;;;;;;;;6319855;28;20481;-88
2023/09/29 06:19:52;;;;;;;0.10;0.10;;;;;;;;;;6306836;28;20125;-87
2023/09/29 06:22:54;;;;;;;0.00;0.00;;;;;;;;;;6297135;28;20047;-87
2023/09/29 06:25:57;;;;;;;0.10;0.10;;;;;;;;;;6311832;28;20040;-88
2023/09/29 06:29:00;;;;;;;0.00;0.00;;;;;;;;;;6303932;28;20048;-88
2023/09/29 06:32:02;;;;;;;0.00;0.00;;;;;;;;;;6302528;28;20040;-88
2023/09/29 06:35:03;;;;;;;0.15;0.15;;;;;;;;;;6323857;28;20046;-88
2023/09/29 06:38:05;;;;;;;0.00;0.00;;;;;;;;;;6314844;28;20114;-88
2023/09/29 06:41:07;;;;;;;0.20;0.20;;;;;;;;;;6313761;28;20693;-88
2023/09/29 06:44:09;;;;;;;0.08;0.08;;;;;;;;;;6299079;28;20057;-88
2023/09/29 06:47:10;;;;;;;0.00;0.00;;;;;;;;;;6304826;28;20036;-87
2023/09/29 06:50:12;;;;;;;0.17;0.17;;;;;;;;;;6309955;28;20225;-88
2023/09/29 06:53:14;;;;;;;0.00;0.00;;;;;;;;;;6304397;28;20059;-88
2023/09/29 06:56:16;;;;;;;0.00;0.00;;;;;;;;;;6295792;28;20043;-88
2023/09/29 06:59:18;;;;;;;0.10;0.10;;;;;;;;;;6306131;28;20063;-88
2023/09/29 07:02:19;;;;;;;0.00;0.00;;;;;;;;;;6320900;28;20402;-88
2023/09/29 07:05:21;;;;;;;0.15;0.15;;;;;;;;;;6300226;28;20225;-87
2023/09/29 07:08:23;;;;;;;0.00;0.00;;;;;;;;;;6304812;28;20032;-88
2023/09/29 07:11:24;;;;;;;0.00;0.00;;;;;;;;;;6317376;28;20044;-87
2023/09/29 07:14:26;;;;;;;0.10;0.10;;;;;;;;;;6324876;28;20036;-88
2023/09/29 07:17:28;;;;;;;0.10;0.10;;;;;;;;;;6312800;28;20044;-88
2023/09/29 07:20:30;;;;;;;0.00;0.00;;;;;;;;;;6312441;28;20043;-87
2023/09/29 07:23:34;;;;;;;0.00;0.00;;;;;;;;;;6307879;28;20326;-88
2023/09/29 07:26:36;;;;;;;0.00;0.00;;;;;;;;;;6320736;28;20043;-88
2023/09/29 07:29:38;;;;;;;0.00;0.00;;;;;;;;;;6310345;28;20040;-87
2023/09/29 07:32:41;;;;;;;0.03;0.03;;;;;;;;;;6324644;28;20347;-88
2023/09/29 07:35:44;;;;;;;0.00;0.00;;;;;;;;;;6324288;28;20079;-87
2023/09/29 07:38:46;;;;;;;0.00;0.00;;;;;;;;;;6323564;28;20144;-88
2023/09/29 07:41:48;;;;;;;0.00;0.00;;;;;;;;;;6319667;28;20055;-88
2023/09/29 07:44:50;;;;;;;0.00;0.00;;;;;;;;;;6332472;28;20120;-88
2023/09/29 07:47:52;;;;;;;0.00;0.00;;;;;;;;;;6297692;28;20166;-88
2023/09/29 07:50:54;;;;;;;0.00;0.00;;;;;;;;;;6302748;28;20040;-88
2023/09/29 07:53:56;;;;;;;0.05;0.05;;;;;;;;;;6335918;28;20039;-88
2023/09/29 07:56:58;;;;;;;0.00;0.00;;;;;;;;;;6311524;28;20047;-88
2023/09/29 07:59:59;;;;;;;0.00;0.00;;;;;;;;;;6311721;28;20040;-88
2023/09/29 08:03:11;;;;;;;0.08;0.08;;;;;;;;;;6320471;28;20075;-88
2023/09/29 08:06:17;;;;;;;0.00;0.00;;;;;;;;;;6317292;28;20513;-88
2023/09/29 08:09:18;;;;;;;0.00;0.00;;;;;;;;;;6305768;28;20040;-88
2023/09/29 08:12:20;;;;;;;0.00;0.00;;;;;;;;;;6307689;28;20607;-88
2023/09/29 08:15:24;;;;;;;0.20;0.20;;;;;;;;;;6307757;28;20042;-88
2023/09/29 08:18:26;;;;;;;0.00;0.00;;;;;;;;;;6319281;28;20044;-88
2023/09/29 08:21:28;;;;;;;0.25;0.25;;;;;;;;;;6328134;28;20047;-88
2023/09/29 08:24:31;;;;;;;0.00;0.00;;;;;;;;;;6316514;28;20536;-88
2023/09/29 08:27:32;;;;;;;0.20;0.20;;;;;;;;;;6316812;28;20044;-88
2023/09/29 08:30:34;;;;;;;0.00;0.00;;;;;;;;;;6316596;28;20077;-88
2023/09/29 08:33:36;;;;;;;0.10;0.10;;;;;;;;;;6316378;28;20279;-88
2023/09/29 08:36:52;;;;;;;0.00;0.00;;;;;;;;;;6316054;28;20256;-88
2023/09/29 08:39:53;;;;;;;0.00;0.00;;;;;;;;;;6315527;28;20052;-88
2023/09/29 08:42:55;;;;;;;0.00;0.00;;;;;;;;;;6317107;28;20071;-88
2023/09/29 08:46:03;;;;;;;0.00;0.00;;;;;;;;;;6314882;28;20047;-88
2023/09/29 08:49:06;;;;;;;0.10;0.10;;;;;;;;;;6308164;28;20045;-88
2023/09/29 08:52:08;;;;;;;0.00;0.00;;;;;;;;;;6316035;28;20054;-88
2023/09/29 08:55:12;;;;;;;0.08;0.08;;;;;;;;;;6323787;28;20043;-88
2023/09/29 08:58:13;;;;;;;0.55;0.22;;;;;;;;;;6317645;28;20406;-88
2023/09/29 09:01:15;;;;;;;0.00;0.00;;;;;;;;;;6323337;28;20062;-88
2023/09/29 09:04:19;;;;;;;0.00;0.00;;;;;;;;;;6316382;28;20513;-88
2023/09/29 09:07:21;;;;;;;0.10;0.10;;;;;;;;;;6313490;28;20044;-88
2023/09/29 09:10:34;;;;;;;0.00;0.00;;;;;;;;;;6315815;28;20028;-88
2023/09/29 09:13:36;;;;;;;0.00;0.00;;;;;;;;;;6315250;28;20050;-88
2023/09/29 09:16:40;;;;;;;0.00;0.00;;;;;;;;;;6317702;28;20048;-88
2023/09/29 09:19:47;;;;;;;0.00;0.00;;;;;;;;;;6326623;28;20052;-88
2023/09/29 09:23:07;;;;;;;0.00;0.00;;;;;;;;;;6314279;28;20356;-88
2023/09/29 09:26:16;;;;;;;0.00;0.00;;;;;;;;;;6293663;28;20053;-88
2023/09/29 09:29:19;;;;;;;0.00;0.00;;;;;;;;;;6302433;28;20477;-88
2023/09/29 09:32:25;;;;;;;0.08;0.08;;;;;;;;;;6295927;28;20040;-88
2023/09/29 09:35:28;;;;;;;0.00;0.00;;;;;;;;;;6315734;28;20051;-88
2023/09/29 09:38:31;;;;;;;0.00;0.00;;;;;;;;;;6303862;28;20139;-88
2023/09/29 09:41:34;;;;;;;0.10;0.10;;;;;;;;;;6322536;28;20464;-88
2023/09/29 09:44:38;;;;;;;0.10;0.10;;;;;;;;;;6322444;27;20048;-88
2023/09/29 09:47:40;;;;;;;0.00;0.00;;;;;;;;;;6325254;28;20054;-88
2023/09/29 09:50:45;;;;;;;0.00;0.00;;;;;;;;;;6314310;28;20401;-88
2023/09/29 09:53:47;;;;;;;0.08;0.08;;;;;;;;;;6322287;28;20138;-88
2023/09/29 09:57:08;;;;;;;0.20;0.20;;;;;;;;;;6327696;28;20048;-87
2023/09/29 10:00:12;;;;;;;0.10;0.10;;;;;;;;;;6313173;28;20032;-88
2023/09/29 10:03:16;;;;;;;0.00;0.00;;;;;;;;;;6306423;28;20052;-87
2023/09/29 10:06:21;;;;;;;0.00;0.00;;;;;;;;;;6303713;28;20099;-88
2023/09/29 10:09:24;;;;;;;0.00;0.00;;;;;;;;;;6314791;28;20048;-88
2023/09/29 10:12:31;;;;;;;0.00;0.00;;;;;;;;;;6309792;28;20505;-87
2023/09/29 10:15:33;;;;;;;0.00;0.00;;;;;;;;;;6303927;28;20051;-87
2023/09/29 10:18:35;;;;;;;0.00;0.00;;;;;;;;;;6308776;28;20047;-88
2023/09/29 10:21:49;;;;;;;0.08;0.08;;;;;;;;;;6295476;28;20051;-88
2023/09/29 10:24:56;;;;;;;0.00;0.00;;;;;;;;;;6318716;28;20518;-88
2023/09/29 10:27:59;;;;;;;0.00;0.00;;;;;;;;;;6298149;28;20465;-88
2023/09/29 10:31:08;;;;;;;0.00;0.00;;;;;;;;;;6312216;28;20460;-88
2023/09/29 10:34:17;;;;;;;0.00;0.00;;;;;;;;;;6302827;28;20055;-88
2023/09/29 10:37:22;;;;;;;0.00;0.00;;;;;;;;;;6330524;28;20043;-88
2023/09/29 10:40:44;;;;;;;0.22;0.22;;;;;;;;;;6302031;28;20052;-88
2023/09/29 10:43:49;;;;;;;0.00;0.00;;;;;;;;;;6324345;28;20128;-88
2023/09/29 10:46:50;;;;;;;0.13;0.13;;;;;;;;;;6319822;28;20039;-88
2023/09/29 10:49:52;;;;;;;0.10;0.10;;;;;;;;;;6328317;28;20040;-88
2023/09/29 10:52:54;;;;;;;0.00;0.00;;;;;;;;;;6321642;28;20044;-88
2023/09/29 10:55:58;;;;;;;0.00;0.00;;;;;;;;;;6312581;28;20051;-88
2023/09/29 10:59:04;;;;;;;0.00;0.00;;;;;;;;;;6310649;28;20644;-88
2023/09/29 11:02:08;;;;;;;0.20;0.10;;;;;;;;;;6301678;28;20039;-88
2023/09/29 11:05:09;;;;;;;0.10;0.10;;;;;;;;;;6331174;28;20585;-87
2023/09/29 11:08:11;;;;;;;0.00;0.00;;;;;;;;;;6322556;28;20395;-88
2023/09/29 11:11:13;;;;;;;0.20;0.20;;;;;;;;;;6312063;28;20125;-88
2023/09/29 11:14:15;;;;;;;0.00;0.00;;;;;;;;;;6301171;28;20036;-88
2023/09/29 11:17:16;;;;;;;0.00;0.00;;;;;;;;;;6310331;28;20048;-88
2023/09/29 11:20:26;;;;;;;0.85;0.30;;;;;;;;;;6310670;28;20066;-88
2023/09/29 11:23:38;;;;;;;0.10;0.10;;;;;;;;;;6313777;28;20745;-88
2023/09/29 11:26:41;;;;;;;0.00;0.00;;;;;;;;;;6312391;28;20044;-88
2023/09/29 11:29:44;;;;;;;0.00;0.00;;;;;;;;;;6306350;28;20048;-88
2023/09/29 11:32:46;;;;;;;0.00;0.00;;;;;;;;;;6311854;28;20043;-88
2023/09/29 11:35:48;;;;;;;0.00;0.00;;;;;;;;;;6304426;28;20039;-88
2023/09/29 11:39:07;;;;;;;0.00;0.00;;;;;;;;;;6291767;28;20045;-88
2023/09/29 11:42:09;;;;;;;0.05;0.05;;;;;;;;;;6310085;28;20287;-88
2023/09/29 11:45:11;;;;;;;0.00;0.00;;;;;;;;;;6302488;28;20040;-88
2023/09/29 11:48:13;;;;;;;0.00;0.00;;;;;;;;;;6315861;28;20529;-88
2023/09/29 11:51:15;;;;;;;0.00;0.00;;;;;;;;;;6304472;28;20080;-89
2023/09/29 11:54:16;;;;;;;0.00;0.00;;;;;;;;;;6304123;28;20048;-88
2023/09/29 11:57:18;;;;;;;0.00;0.00;;;;;;;;;;6304736;28;20514;-88
2023/09/29 12:00:20;;;;;;;0.00;0.00;;;;;;;;;;6318706;28;20044;-88
2023/09/29 12:03:23;;;;;;;0.05;0.05;;;;;;;;;;6312420;28;20398;-89
2023/09/29 12:06:25;;;;;;;0.00;0.00;;;;;;;;;;6320108;28;20040;-88
2023/09/29 12:09:26;;;;;;;0.10;0.10;;;;;;;;;;6314259;28;20487;-89
2023/09/29 12:12:29;;;;;;;0.00;0.00;;;;;;;;;;6302928;28;20119;-88
2023/09/29 12:15:32;;;;;;;0.00;0.00;;;;;;;;;;6308975;28;20501;-89
2023/09/29 12:18:33;;;;;;;0.10;0.10;;;;;;;;;;6315730;28;20075;-88
2023/09/29 12:21:35;;;;;;;0.10;0.10;;;;;;;;;;6325791;28;20040;-88
2023/09/29 12:24:39;;;;;;;0.00;0.00;;;;;;;;;;6301188;28;20454;-88
2023/09/29 12:27:48;;;;;;;0.00;0.00;;;;;;;;;;6300248;28;20509;-89
2023/09/29 12:30:50;;;;;;;0.05;0.05;;;;;;;;;;6317255;28;20051;-88
2023/09/29 12:33:53;;;;;;;0.00;0.00;;;;;;;;;;6328069;28;20044;-88
2023/09/29 12:36:56;;;;;;;0.00;0.00;;;;;;;;;;6325357;28;20058;-88
2023/09/29 12:39:57;;;;;;;0.20;0.20;;;;;;;;;;6316982;28;20044;-89
2023/09/29 12:43:00;;;;;;;0.00;0.00;;;;;;;;;;6311352;28;20054;-88
2023/09/29 12:46:02;;;;;;;0.00;0.00;;;;;;;;;;6311331;28;20062;-89
2023/09/29 12:49:04;;;;;;;0.00;0.00;;;;;;;;;;6326815;28;20036;-88
2023/09/29 12:52:05;;;;;;;0.00;0.00;;;;;;;;;;6333582;28;20044;-89
2023/09/29 12:55:11;;;;;;;0.57;0.45;;;;;;;;;;6329795;28;20044;-89
2023/09/29 12:58:13;;;;;;;0.00;0.00;;;;;;;;;;6322692;28;20052;-89
2023/09/29 13:01:15;;;;;;;0.00;0.00;;;;;;;;;;6304187;28;20032;-88
2023/09/29 13:04:17;;;;;;;0.00;0.00;;;;;;;;;;6307136;28;20044;-88
2023/09/29 13:07:19;;;;;;;0.00;0.00;;;;;;;;;;6336267;28;20050;-88
2023/09/29 13:10:21;;;;;;;0.10;0.10;;;;;;;;;;6308604;28;20047;-88
2023/09/29 13:13:22;;;;;;;0.00;0.00;;;;;;;;;;6311001;28;20436;-88
2023/09/29 13:16:25;;;;;;;0.00;0.00;;;;;;;;;;6315363;28;20154;-88
2023/09/29 13:19:27;;;;;;;0.00;0.00;;;;;;;;;;6327336;28;20498;-89
2023/09/29 13:22:28;;;;;;;0.13;0.13;;;;;;;;;;6334601;28;20398;-88
2023/09/29 13:25:31;;;;;;;0.20;0.20;;;;;;;;;;6311980;28;20391;-89
2023/09/29 13:28:33;;;;;;;0.05;0.05;;;;;;;;;;6314734;28;20040;-89
2023/09/29 13:31:35;;;;;;;0.00;0.00;;;;;;;;;;6311420;28;20047;-89
2023/09/29 13:34:37;;;;;;;0.00;0.00;;;;;;;;;;6303149;28;20052;-89
2023/09/29 13:37:40;;;;;;;0.00;0.00;;;;;;;;;;6328538;28;20044;-89
2023/09/29 13:40:41;;;;;;;0.10;0.10;;;;;;;;;;6320793;28;20060;-89
2023/09/29 13:43:43;;;;;;;0.10;0.10;;;;;;;;;;6340422;28;20043;-89
2023/09/29 13:46:47;;;;;;;0.10;0.10;;;;;;;;;;6319292;28;20047;-88
2023/09/29 13:50:04;;;;;;;0.00;0.00;;;;;;;;;;6316343;28;20054;-89
2023/09/29 13:53:06;;;;;;;0.00;0.00;;;;;;;;;;6317002;28;20606;-89
2023/09/29 13:56:09;;;;;;;0.00;0.00;;;;;;;;;;6317418;28;20409;-89
2023/09/29 13:59:11;;;;;;;0.00;0.00;;;;;;;;;;6308718;28;20045;-89
2023/09/29 14:02:13;;;;;;;0.00;0.00;;;;;;;;;;6314195;28;20409;-88
2023/09/29 14:05:16;;;;;;;0.00;0.00;;;;;;;;;;6324946;28;20156;-88
2023/09/29 14:08:19;;;;;;;0.08;0.08;;;;;;;;;;6326768;28;20039;-88
2023/09/29 14:11:21;;;;;;;0.00;0.00;;;;;;;;;;6317222;28;20063;-89
2023/09/29 14:14:22;;;;;;;0.00;0.00;;;;;;;;;;6325970;28;20043;-88
2023/09/29 14:17:24;;;;;;;0.10;0.10;;;;;;;;;;6327532;28;20599;-89
2023/09/29 14:20:28;;;;;;;0.10;0.10;;;;;;;;;;6321632;28;20158;-88
2023/09/29 14:23:30;;;;;;;0.00;0.00;;;;;;;;;;6322427;28;20055;-89
2023/09/29 14:26:36;;;;;;;0.00;0.00;;;;;;;;;;6320712;28;20078;-87
2023/09/29 14:29:37;;;;;;;0.00;0.00;;;;;;;;;;6314238;28;20100;-88
2023/09/29 14:32:39;;;;;;;0.00;0.00;;;;;;;;;;6309626;28;20088;-88
2023/09/29 14:35:41;;;;;;;0.00;0.00;;;;;;;;;;6307457;28;20044;-88
2023/09/29 14:38:50;;;;;;;0.00;0.00;;;;;;;;;;6299172;28;20040;-88
2023/09/29 14:41:51;;;;;;;0.00;0.00;;;;;;;;;;6311409;28;20059;-88
2023/09/29 14:44:54;;;;;;;0.00;0.00;;;;;;;;;;6334420;28;20138;-89
2023/09/29 14:47:56;;;;;;;0.00;0.00;;;;;;;;;;6310862;28;20490;-89
2023/09/29 14:50:58;;;;;;;0.03;0.03;;;;;;;;;;6306919;28;20402;-88
2023/09/29 14:54:00;;;;;;;0.00;0.00;;;;;;;;;;6321787;28;20051;-87
2023/09/29 14:57:01;;;;;;;0.00;0.00;;;;;;;;;;6326698;28;20044;-88
2023/09/29 15:00:04;;;;;;;0.00;0.00;;;;;;;;;;6319575;28;20093;-88
2023/09/29 15:03:06;;;;;;;0.17;0.17;;;;;;;;;;6314954;28;20039;-88
2023/09/29 15:06:09;;;;;;;0.10;0.10;;;;;;;;;;6312006;28;20068;-88
2023/09/29 15:09:15;;;;;;;0.00;0.00;;;;;;;;;;6308623;28;20078;-88
2023/09/29 15:12:17;;;;;;;0.00;0.00;;;;;;;;;;6303161;28;20537;-89
2023/09/29 15:15:21;;;;;;;0.00;0.00;;;;;;;;;;6314566;28;20043;-88
2023/09/29 15:18:23;;;;;;;0.00;0.00;;;;;;;;;;6296698;28;20068;-88
2023/09/29 15:21:25;;;;;;;0.00;0.00;;;;;;;;;;6290198;28;20097;-89
2023/09/29 15:24:27;;;;;;;0.00;0.00;;;;;;;;;;6326151;28;20726;-89
2023/09/29 15:27:29;;;;;;;0.00;0.00;;;;;;;;;;6318631;28;20055;-89
2023/09/29 15:30:30;;;;;;;0.08;0.08;;;;;;;;;;6311723;28;20040;-88
2023/09/29 15:33:32;;;;;;;0.00;0.00;;;;;;;;;;6312712;28;20043;-88
2023/09/29 15:36:34;;;;;;;0.10;0.10;;;;;;;;;;6311993;28;20091;-95
2023/09/29 15:39:36;;;;;;;0.00;0.00;;;;;;;;;;6312246;28;20055;-89
2023/09/29 15:42:38;;;;;;;0.00;0.00;;;;;;;;;;6331138;28;20490;-89
2023/09/29 15:45:40;;;;;;;0.00;0.00;;;;;;;;;;6318100;28;20043;-88
2023/09/29 15:48:43;;;;;;;0.00;0.00;;;;;;;;;;6311055;28;20039;-88
2023/09/29 15:51:45;;;;;;;0.10;0.10;;;;;;;;;;6310341;28;20044;-88
2023/09/29 15:54:47;;;;;;;0.13;0.13;;;;;;;;;;6309665;28;20051;-88
2023/09/29 15:57:49;;;;;;;0.00;0.00;;;;;;;;;;6304200;28;20040;-88
2023/09/29 16:00:52;;;;;;;0.00;0.00;;;;;;;;;;6311280;28;20045;-88
2023/09/29 16:03:53;;;;;;;0.00;0.00;;;;;;;;;;6320120;28;20047;-88
2023/09/29 16:06:55;;;;;;;0.08;0.08;;;;;;;;;;6325382;28;20481;-88
2023/09/29 16:09:58;;;;;;;0.00;0.00;;;;;;;;;;6309936;28;20064;-88
2023/09/29 16:13:00;;;;;;;0.00;0.00;;;;;;;;;;6292684;28;20115;-88
2023/09/29 16:16:03;;;;;;;0.00;0.00;;;;;;;;;;6308862;28;20135;-88
2023/09/29 16:19:05;;;;;;;0.00;0.00;;;;;;;;;;6311479;28;20088;-88
2023/09/29 16:22:09;;;;;;;0.00;0.00;;;;;;;;;;6325666;28;20036;-88
2023/09/29 16:25:11;;;;;;;0.00;0.00;;;;;;;;;;6319939;28;20456;-88
2023/09/29 16:28:13;;;;;;;0.00;0.00;;;;;;;;;;6318442;28;20067;-88
2023/09/29 16:31:15;;;;;;;0.32;0.32;;;;;;;;;;6316511;28;20035;-88
2023/09/29 16:34:17;;;;;;;0.00;0.00;;;;;;;;;;6326219;28;20035;-88
2023/09/29 16:37:18;;;;;;;0.05;0.05;;;;;;;;;;6318327;28;20040;-88
2023/09/29 16:40:20;;;;;;;0.00;0.00;;;;;;;;;;6309073;28;20307;-88
2023/09/29 16:43:29;;;;;;;0.10;0.10;;;;;;;;;;6310774;28;20040;-88
2023/09/29 16:46:31;;;;;;;0.00;0.00;;;;;;;;;;6317715;28;20040;-88
2023/09/29 16:49:32;;;;;;;0.00;0.00;;;;;;;;;;6339152;28;20655;-89
2023/09/29 16:52:34;;;;;;;0.00;0.00;;;;;;;;;;6319322;28;20098;-89
2023/09/29 16:55:36;;;;;;;0.00;0.00;;;;;;;;;;6326441;28;20401;-86
2023/09/29 16:58:38;;;;;;;0.00;0.00;;;;;;;;;;6309707;28;20059;-88
2023/09/29 17:01:41;;;;;;;0.00;0.00;;;;;;;;;;6299919;28;20052;-88
2023/09/29 17:04:43;;;;;;;0.00;0.00;;;;;;;;;;6305227;28;20086;-88
2023/09/29 17:07:44;;;;;;;0.20;0.20;;;;;;;;;;6307298;28;20051;-88
2023/09/29 17:10:46;;;;;;;0.00;0.00;;;;;;;;;;6312194;28;20122;-88
2023/09/29 17:13:48;;;;;;;0.00;0.00;;;;;;;;;;6302147;28;20049;-91
2023/09/29 17:16:50;;;;;;;0.00;0.00;;;;;;;;;;6304224;28;20496;-88
2023/09/29 17:19:51;;;;;;;0.00;0.00;;;;;;;;;;6323450;28;20113;-92
2023/09/29 17:22:53;;;;;;;0.00;0.00;;;;;;;;;;6318458;28;20036;-90
2023/09/29 17:25:55;;;;;;;0.00;0.00;;;;;;;;;;6318599;28;20143;-91
2023/09/29 17:28:57;;;;;;;0.00;0.00;;;;;;;;;;6324676;28;20411;-92
2023/09/29 17:31:59;;;;;;;0.00;0.00;;;;;;;;;;6306870;28;20122;-96
2023/09/29 17:35:01;;;;;;;0.00;0.00;;;;;;;;;;6314337;28;20044;-95
2023/09/29 17:38:03;;;;;;;0.00;0.00;;;;;;;;;;6310004;28;20418;-94
2023/09/29 17:41:05;;;;;;;0.00;0.00;;;;;;;;;;6306609;28;20041;-95
2023/09/29 17:44:07;;;;;;;0.00;0.00;;;;;;;;;;6310289;28;20070;-95
2023/09/29 17:47:09;;;;;;;0.00;0.00;;;;;;;;;;6326506;28;20036;-92
2023/09/29 17:50:11;;;;;;;0.00;0.00;;;;;;;;;;6341359;28;20066;-96
2023/09/29 17:53:13;;;;;;;0.00;0.00;;;;;;;;;;6325943;28;20047;-91
2023/09/29 17:56:15;;;;;;;0.00;0.00;;;;;;;;;;6328580;28;20055;-89
2023/09/29 17:59:16;;;;;;;0.35;0.35;;;;;;;;;;6314344;28;20040;-90
2023/09/29 18:02:19;;;;;;;0.00;0.00;;;;;;;;;;6340629;28;20019;-96
2023/09/29 18:05:21;;;;;;;0.00;0.00;;;;;;;;;;6308769;28;20505;-96
2023/09/29 18:08:24;;;;;;;0.38;0.38;;;;;;;;;;6337913;28;20045;-96
2023/09/29 18:11:26;;;;;;;0.00;0.00;;;;;;;;;;6326560;28;20807;-93
2023/09/29 18:14:33;;;;;;;0.00;0.00;;;;;;;;;;6329479;28;20040;-95
2023/09/29 18:17:36;;;;;;;0.00;0.00;;;;;;;;;;6330709;28;20048;-94